sensor_id;sensor_type;location;lat;lon;timestamp;P1;durP1;ratioP1;P2;durP2;ratioP2
74168;SDS011;62523;53.336;83.690;2022-09-25T00:01:03;8.27;;;6.45;;
74168;SDS011;62523;53.336;83.690;2022-09-25T00:06:07;15.25;;;8.30;;
74168;SDS011;62523;53.336;83.690;2022-09-25T00:11:17;21.48;;;6.63;;
74168;SDS011;62523;53.336;83.690;2022-09-25T00:16:21;12.38;;;5.50;;
74168;SDS011;62523;53.336;83.690;2022-09-25T00:21:26;16.20;;;6.35;;
74168;SDS011;62523;53.336;83.690;2022-09-25T00:26:31;6.97;;;4.88;;
74168;SDS011;62523;53.336;83.690;2022-09-25T00:31:35;6.65;;;5.13;;
74168;SDS011;62523;53.336;83.690;2022-09-25T00:36:36;7.85;;;4.57;;
74168;SDS011;62523;53.336;83.690;2022-09-25T00:41:38;15.32;;;8.48;;
74168;SDS011;62523;53.336;83.690;2022-09-25T00:46:40;31.73;;;8.05;;
74168;SDS011;62523;53.336;83.690;2022-09-25T00:51:55;13.73;;;7.70;;
74168;SDS011;62523;53.336;83.690;2022-09-25T00:57:03;17.02;;;6.70;;
74168;SDS011;62523;53.336;83.690;2022-09-25T01:02:11;33.72;;;12.35;;
74168;SDS011;62523;53.336;83.690;2022-09-25T01:07:19;23.52;;;14.50;;
74168;SDS011;62523;53.336;83.690;2022-09-25T01:12:20;30.00;;;15.57;;
74168;SDS011;62523;53.336;83.690;2022-09-25T01:33:47;21.30;;;10.32;;
74168;SDS011;62523;53.336;83.690;2022-09-25T01:38:56;19.98;;;10.45;;
74168;SDS011;62523;53.336;83.690;2022-09-25T01:44:11;23.48;;;9.00;;
74168;SDS011;62523;53.336;83.690;2022-09-25T01:49:29;22.25;;;9.20;;
74168;SDS011;62523;53.336;83.690;2022-09-25T02:00:00;23.48;;;7.32;;
74168;SDS011;62523;53.336;83.690;2022-09-25T02:05:18;17.48;;;6.78;;
74168;SDS011;62523;53.336;83.690;2022-09-25T02:10:36;14.63;;;6.32;;
74168;SDS011;62523;53.336;83.690;2022-09-25T02:16:24;19.35;;;6.90;;
74168;SDS011;62523;53.336;83.690;2022-09-25T02:26:29;17.48;;;6.57;;
74168;SDS011;62523;53.336;83.690;2022-09-25T02:31:33;12.77;;;6.55;;
74168;SDS011;62523;53.336;83.690;2022-09-25T02:36:40;18.60;;;7.25;;
74168;SDS011;62523;53.336;83.690;2022-09-25T02:47:17;41.77;;;10.47;;
74168;SDS011;62523;53.336;83.690;2022-09-25T02:52:42;17.98;;;9.68;;
74168;SDS011;62523;53.336;83.690;2022-09-25T02:57:59;20.05;;;9.45;;
74168;SDS011;62523;53.336;83.690;2022-09-25T03:03:15;32.72;;;15.50;;
74168;SDS011;62523;53.336;83.690;2022-09-25T03:08:19;20.83;;;10.73;;
74168;SDS011;62523;53.336;83.690;2022-09-25T03:13:41;26.60;;;10.45;;
74168;SDS011;62523;53.336;83.690;2022-09-25T03:18:43;25.45;;;9.02;;
74168;SDS011;62523;53.336;83.690;2022-09-25T03:23:45;36.67;;;22.75;;
74168;SDS011;62523;53.336;83.690;2022-09-25T03:28:46;25.48;;;10.35;;
74168;SDS011;62523;53.336;83.690;2022-09-25T03:33:47;19.00;;;11.52;;
74168;SDS011;62523;53.336;83.690;2022-09-25T03:38:50;19.13;;;10.52;;
74168;SDS011;62523;53.336;83.690;2022-09-25T03:43:57;18.45;;;9.82;;
74168;SDS011;62523;53.336;83.690;2022-09-25T03:48:59;25.17;;;10.30;;
74168;SDS011;62523;53.336;83.690;2022-09-25T03:54:01;29.23;;;10.10;;
74168;SDS011;62523;53.336;83.690;2022-09-25T03:59:03;32.08;;;11.73;;
74168;SDS011;62523;53.336;83.690;2022-09-25T04:04:04;32.20;;;9.60;;
74168;SDS011;62523;53.336;83.690;2022-09-25T04:09:05;27.20;;;9.85;;
74168;SDS011;62523;53.336;83.690;2022-09-25T04:14:07;20.48;;;11.07;;
74168;SDS011;62523;53.336;83.690;2022-09-25T04:19:08;24.65;;;11.98;;
74168;SDS011;62523;53.336;83.690;2022-09-25T04:24:10;19.20;;;9.57;;
74168;SDS011;62523;53.336;83.690;2022-09-25T04:29:29;17.70;;;9.50;;
74168;SDS011;62523;53.336;83.690;2022-09-25T04:34:31;20.70;;;9.75;;
74168;SDS011;62523;53.336;83.690;2022-09-25T04:39:34;15.70;;;9.25;;
74168;SDS011;62523;53.336;83.690;2022-09-25T04:44:36;16.85;;;8.73;;
74168;SDS011;62523;53.336;83.690;2022-09-25T04:49:37;19.58;;;7.60;;
74168;SDS011;62523;53.336;83.690;2022-09-25T04:54:38;18.23;;;11.70;;
74168;SDS011;62523;53.336;83.690;2022-09-25T04:59:39;23.27;;;10.45;;
74168;SDS011;62523;53.336;83.690;2022-09-25T05:04:41;25.00;;;10.30;;
74168;SDS011;62523;53.336;83.690;2022-09-25T05:09:42;21.33;;;12.45;;
74168;SDS011;62523;53.336;83.690;2022-09-25T05:14:43;23.75;;;12.85;;
74168;SDS011;62523;53.336;83.690;2022-09-25T05:19:45;29.73;;;12.35;;
74168;SDS011;62523;53.336;83.690;2022-09-25T05:24:46;21.27;;;12.20;;
74168;SDS011;62523;53.336;83.690;2022-09-25T05:29:47;25.73;;;12.13;;
74168;SDS011;62523;53.336;83.690;2022-09-25T05:34:49;24.00;;;12.00;;
74168;SDS011;62523;53.336;83.690;2022-09-25T05:39:50;39.83;;;20.98;;
74168;SDS011;62523;53.336;83.690;2022-09-25T05:44:51;32.97;;;13.95;;
74168;SDS011;62523;53.336;83.690;2022-09-25T05:49:53;41.35;;;14.35;;
74168;SDS011;62523;53.336;83.690;2022-09-25T05:54:54;23.00;;;12.55;;
74168;SDS011;62523;53.336;83.690;2022-09-25T05:59:56;18.48;;;11.65;;
74168;SDS011;62523;53.336;83.690;2022-09-25T06:04:58;30.85;;;10.90;;
74168;SDS011;62523;53.336;83.690;2022-09-25T06:09:59;23.90;;;13.27;;
74168;SDS011;62523;53.336;83.690;2022-09-25T06:15:01;24.73;;;11.85;;
74168;SDS011;62523;53.336;83.690;2022-09-25T06:20:03;24.00;;;14.02;;
74168;SDS011;62523;53.336;83.690;2022-09-25T06:25:07;27.08;;;12.45;;
74168;SDS011;62523;53.336;83.690;2022-09-25T06:30:10;15.80;;;10.55;;
74168;SDS011;62523;53.336;83.690;2022-09-25T06:35:12;27.15;;;10.80;;
74168;SDS011;62523;53.336;83.690;2022-09-25T06:40:14;22.77;;;11.15;;
74168;SDS011;62523;53.336;83.690;2022-09-25T06:45:15;22.85;;;9.85;;
74168;SDS011;62523;53.336;83.690;2022-09-25T06:50:16;31.88;;;18.63;;
74168;SDS011;62523;53.336;83.690;2022-09-25T06:55:18;18.27;;;11.52;;
74168;SDS011;62523;53.336;83.690;2022-09-25T07:00:19;16.30;;;8.75;;
74168;SDS011;62523;53.336;83.690;2022-09-25T07:05:20;23.00;;;8.15;;
74168;SDS011;62523;53.336;83.690;2022-09-25T07:10:22;15.85;;;8.90;;
74168;SDS011;62523;53.336;83.690;2022-09-25T07:15:23;14.60;;;9.23;;
74168;SDS011;62523;53.336;83.690;2022-09-25T07:20:24;19.20;;;9.45;;
74168;SDS011;62523;53.336;83.690;2022-09-25T07:25:25;14.90;;;8.98;;
74168;SDS011;62523;53.336;83.690;2022-09-25T07:30:27;17.05;;;10.38;;
74168;SDS011;62523;53.336;83.690;2022-09-25T07:35:29;17.13;;;10.73;;
74168;SDS011;62523;53.336;83.690;2022-09-25T07:40:30;26.83;;;9.70;;
74168;SDS011;62523;53.336;83.690;2022-09-25T07:45:33;38.22;;;9.95;;
74168;SDS011;62523;53.336;83.690;2022-09-25T07:50:35;31.08;;;9.35;;
74168;SDS011;62523;53.336;83.690;2022-09-25T07:55:36;17.50;;;11.98;;
74168;SDS011;62523;53.336;83.690;2022-09-25T08:00:37;20.55;;;9.10;;
74168;SDS011;62523;53.336;83.690;2022-09-25T08:05:40;21.77;;;10.07;;
74168;SDS011;62523;53.336;83.690;2022-09-25T08:10:41;22.52;;;10.35;;
74168;SDS011;62523;53.336;83.690;2022-09-25T08:15:42;24.90;;;9.02;;
74168;SDS011;62523;53.336;83.690;2022-09-25T08:20:44;11.93;;;8.43;;
74168;SDS011;62523;53.336;83.690;2022-09-25T08:25:48;27.08;;;10.45;;
74168;SDS011;62523;53.336;83.690;2022-09-25T08:30:49;13.68;;;9.15;;
74168;SDS011;62523;53.336;83.690;2022-09-25T08:35:57;13.40;;;9.23;;
74168;SDS011;62523;53.336;83.690;2022-09-25T08:46:07;24.30;;;8.18;;
74168;SDS011;62523;53.336;83.690;2022-09-25T08:51:43;16.00;;;8.30;;
74168;SDS011;62523;53.336;83.690;2022-09-25T08:56:50;17.77;;;7.30;;
74168;SDS011;62523;53.336;83.690;2022-09-25T09:01:56;9.55;;;7.00;;
74168;SDS011;62523;53.336;83.690;2022-09-25T09:07:05;12.00;;;6.85;;
74168;SDS011;62523;53.336;83.690;2022-09-25T09:17:22;12.15;;;7.22;;
74168;SDS011;62523;53.336;83.690;2022-09-25T09:22:28;17.23;;;8.32;;
74168;SDS011;62523;53.336;83.690;2022-09-25T09:38:16;22.65;;;8.13;;
74168;SDS011;62523;53.336;83.690;2022-09-25T09:43:51;15.60;;;6.82;;
74168;SDS011;62523;53.336;83.690;2022-09-25T09:59:54;9.45;;;6.55;;
74168;SDS011;62523;53.336;83.690;2022-09-25T10:05:15;11.27;;;6.68;;
74168;SDS011;62523;53.336;83.690;2022-09-25T10:10:44;15.75;;;8.02;;
74168;SDS011;62523;53.336;83.690;2022-09-25T10:15:48;17.23;;;9.48;;
74168;SDS011;62523;53.336;83.690;2022-09-25T10:21:08;21.50;;;7.80;;
74168;SDS011;62523;53.336;83.690;2022-09-25T10:26:30;19.95;;;5.82;;
74168;SDS011;62523;53.336;83.690;2022-09-25T10:31:34;20.33;;;8.57;;
74168;SDS011;62523;53.336;83.690;2022-09-25T10:36:42;28.88;;;9.40;;
74168;SDS011;62523;53.336;83.690;2022-09-25T10:41:46;17.98;;;9.80;;
74168;SDS011;62523;53.336;83.690;2022-09-25T10:46:47;28.25;;;10.55;;
74168;SDS011;62523;53.336;83.690;2022-09-25T10:52:07;25.58;;;16.23;;
74168;SDS011;62523;53.336;83.690;2022-09-25T10:57:21;21.20;;;8.55;;
74168;SDS011;62523;53.336;83.690;2022-09-25T11:02:36;17.63;;;8.65;;
74168;SDS011;62523;53.336;83.690;2022-09-25T11:07:51;10.77;;;7.53;;
74168;SDS011;62523;53.336;83.690;2022-09-25T11:12:56;24.67;;;9.27;;
74168;SDS011;62523;53.336;83.690;2022-09-25T11:17:58;24.05;;;10.90;;
74168;SDS011;62523;53.336;83.690;2022-09-25T11:23:20;32.42;;;12.88;;
74168;SDS011;62523;53.336;83.690;2022-09-25T11:28:34;21.35;;;9.90;;
74168;SDS011;62523;53.336;83.690;2022-09-25T11:33:52;31.80;;;15.60;;
74168;SDS011;62523;53.336;83.690;2022-09-25T11:39:08;15.60;;;9.23;;
74168;SDS011;62523;53.336;83.690;2022-09-25T11:49:40;13.25;;;7.95;;
74168;SDS011;62523;53.336;83.690;2022-09-25T12:00:23;20.83;;;9.23;;
74168;SDS011;62523;53.336;83.690;2022-09-25T12:11:02;22.27;;;9.95;;
74168;SDS011;62523;53.336;83.690;2022-09-25T12:16:31;20.10;;;7.40;;
74168;SDS011;62523;53.336;83.690;2022-09-25T12:32:34;17.05;;;8.88;;
74168;SDS011;62523;53.336;83.690;2022-09-25T12:43:27;52.58;;;14.65;;
74168;SDS011;62523;53.336;83.690;2022-09-25T12:48:37;49.03;;;21.95;;
74168;SDS011;62523;53.336;83.690;2022-09-25T13:04:58;32.27;;;17.63;;
74168;SDS011;62523;53.336;83.690;2022-09-25T13:10:17;46.58;;;17.00;;
74168;SDS011;62523;53.336;83.690;2022-09-25T13:15:40;27.45;;;14.75;;
74168;SDS011;62523;53.336;83.690;2022-09-25T13:20:53;47.90;;;12.38;;
74168;SDS011;62523;53.336;83.690;2022-09-25T13:26:07;25.13;;;9.90;;
74168;SDS011;62523;53.336;83.690;2022-09-25T13:31:20;31.35;;;17.40;;
74168;SDS011;62523;53.336;83.690;2022-09-25T13:36:31;39.10;;;24.25;;
74168;SDS011;62523;53.336;83.690;2022-09-25T13:41:33;53.08;;;24.83;;
74168;SDS011;62523;53.336;83.690;2022-09-25T13:46:34;52.97;;;26.80;;
74168;SDS011;62523;53.336;83.690;2022-09-25T13:51:37;58.58;;;31.20;;
74168;SDS011;62523;53.336;83.690;2022-09-25T13:56:45;86.88;;;35.03;;
74168;SDS011;62523;53.336;83.690;2022-09-25T14:01:55;71.75;;;34.35;;
74168;SDS011;62523;53.336;83.690;2022-09-25T14:07:32;60.03;;;25.85;;
74168;SDS011;62523;53.336;83.690;2022-09-25T14:17:48;47.38;;;20.00;;
74168;SDS011;62523;53.336;83.690;2022-09-25T14:22:52;36.38;;;17.90;;
74168;SDS011;62523;53.336;83.690;2022-09-25T14:27:55;32.58;;;16.23;;
74168;SDS011;62523;53.336;83.690;2022-09-25T14:38:39;50.00;;;20.55;;
74168;SDS011;62523;53.336;83.690;2022-09-25T14:48:51;47.25;;;18.58;;
74168;SDS011;62523;53.336;83.690;2022-09-25T14:53:57;23.25;;;11.45;;
74168;SDS011;62523;53.336;83.690;2022-09-25T14:59:06;18.80;;;10.52;;
74168;SDS011;62523;53.336;83.690;2022-09-25T15:04:12;19.92;;;10.60;;
74168;SDS011;62523;53.336;83.690;2022-09-25T15:09:27;20.20;;;9.98;;
74168;SDS011;62523;53.336;83.690;2022-09-25T15:14:36;13.50;;;8.18;;
74168;SDS011;62523;53.336;83.690;2022-09-25T15:19:42;15.10;;;7.38;;
74168;SDS011;62523;53.336;83.690;2022-09-25T15:24:49;18.98;;;7.13;;
74168;SDS011;62523;53.336;83.690;2022-09-25T15:29:58;17.98;;;6.93;;
74168;SDS011;62523;53.336;83.690;2022-09-25T15:35:05;13.13;;;7.32;;
74168;SDS011;62523;53.336;83.690;2022-09-25T15:40:12;14.90;;;7.38;;
74168;SDS011;62523;53.336;83.690;2022-09-25T15:50:35;11.25;;;5.45;;
74168;SDS011;62523;53.336;83.690;2022-09-25T15:55:37;14.73;;;6.32;;
74168;SDS011;62523;53.336;83.690;2022-09-25T16:00:43;19.58;;;7.15;;
74168;SDS011;62523;53.336;83.690;2022-09-25T16:06:15;34.58;;;7.82;;
74168;SDS011;62523;53.336;83.690;2022-09-25T16:11:18;36.88;;;8.57;;
74168;SDS011;62523;53.336;83.690;2022-09-25T16:16:26;34.00;;;6.53;;
74168;SDS011;62523;53.336;83.690;2022-09-25T16:21:30;10.90;;;3.85;;
74168;SDS011;62523;53.336;83.690;2022-09-25T16:26:35;13.07;;;4.47;;
74168;SDS011;62523;53.336;83.690;2022-09-25T16:31:38;15.98;;;4.32;;
74168;SDS011;62523;53.336;83.690;2022-09-25T16:36:42;9.98;;;2.95;;
74168;SDS011;62523;53.336;83.690;2022-09-25T16:41:46;20.58;;;4.28;;
74168;SDS011;62523;53.336;83.690;2022-09-25T16:47:34;20.85;;;4.90;;
74168;SDS011;62523;53.336;83.690;2022-09-25T16:52:19;5.15;;;3.45;;
74168;SDS011;62523;53.336;83.690;2022-09-25T16:57:23;7.32;;;5.53;;
74168;SDS011;62523;53.336;83.690;2022-09-25T17:07:35;13.45;;;8.48;;
74168;SDS011;62523;53.336;83.690;2022-09-25T17:12:36;16.77;;;5.72;;
74168;SDS011;62523;53.336;83.690;2022-09-25T17:17:38;9.68;;;5.50;;
74168;SDS011;62523;53.336;83.690;2022-09-25T17:22:40;7.40;;;4.72;;
74168;SDS011;62523;53.336;83.690;2022-09-25T17:27:41;7.72;;;4.35;;
74168;SDS011;62523;53.336;83.690;2022-09-25T17:32:42;9.02;;;5.68;;
74168;SDS011;62523;53.336;83.690;2022-09-25T17:37:43;18.17;;;7.30;;
74168;SDS011;62523;53.336;83.690;2022-09-25T17:42:45;26.75;;;7.18;;
74168;SDS011;62523;53.336;83.690;2022-09-25T17:47:46;28.85;;;7.88;;
74168;SDS011;62523;53.336;83.690;2022-09-25T17:52:47;12.60;;;7.35;;
74168;SDS011;62523;53.336;83.690;2022-09-25T17:57:49;19.10;;;8.82;;
74168;SDS011;62523;53.336;83.690;2022-09-25T18:02:50;16.08;;;8.95;;
74168;SDS011;62523;53.336;83.690;2022-09-25T18:07:51;26.05;;;9.48;;
74168;SDS011;62523;53.336;83.690;2022-09-25T18:12:53;19.52;;;8.85;;
74168;SDS011;62523;53.336;83.690;2022-09-25T18:17:55;18.20;;;10.15;;
74168;SDS011;62523;53.336;83.690;2022-09-25T18:22:56;16.30;;;10.00;;
74168;SDS011;62523;53.336;83.690;2022-09-25T18:27:58;18.77;;;10.38;;
74168;SDS011;62523;53.336;83.690;2022-09-25T18:32:59;27.48;;;12.15;;
74168;SDS011;62523;53.336;83.690;2022-09-25T18:38:00;39.10;;;12.02;;
74168;SDS011;62523;53.336;83.690;2022-09-25T18:43:01;35.05;;;13.63;;
74168;SDS011;62523;53.336;83.690;2022-09-25T18:48:03;33.80;;;11.68;;
74168;SDS011;62523;53.336;83.690;2022-09-25T18:53:04;31.73;;;11.43;;
74168;SDS011;62523;53.336;83.690;2022-09-25T18:58:05;28.55;;;12.38;;
74168;SDS011;62523;53.336;83.690;2022-09-25T19:03:06;30.42;;;12.60;;
74168;SDS011;62523;53.336;83.690;2022-09-25T19:08:08;43.45;;;13.32;;
74168;SDS011;62523;53.336;83.690;2022-09-25T19:13:10;33.58;;;12.40;;
74168;SDS011;62523;53.336;83.690;2022-09-25T19:18:12;43.13;;;16.50;;
74168;SDS011;62523;53.336;83.690;2022-09-25T19:23:13;29.27;;;12.07;;
74168;SDS011;62523;53.336;83.690;2022-09-25T19:28:14;16.52;;;10.40;;
74168;SDS011;62523;53.336;83.690;2022-09-25T19:33:16;27.40;;;12.77;;
74168;SDS011;62523;53.336;83.690;2022-09-25T19:38:17;31.63;;;11.27;;
74168;SDS011;62523;53.336;83.690;2022-09-25T19:43:18;23.75;;;13.43;;
74168;SDS011;62523;53.336;83.690;2022-09-25T19:48:20;28.27;;;12.50;;
74168;SDS011;62523;53.336;83.690;2022-09-25T19:53:22;37.22;;;14.40;;
74168;SDS011;62523;53.336;83.690;2022-09-25T19:58:24;35.70;;;14.60;;
74168;SDS011;62523;53.336;83.690;2022-09-25T20:03:25;35.45;;;14.75;;
74168;SDS011;62523;53.336;83.690;2022-09-25T20:08:26;30.00;;;12.90;;
74168;SDS011;62523;53.336;83.690;2022-09-25T20:13:27;27.15;;;13.88;;
74168;SDS011;62523;53.336;83.690;2022-09-25T20:18:29;22.45;;;13.05;;
74168;SDS011;62523;53.336;83.690;2022-09-25T20:23:30;29.73;;;14.43;;
74168;SDS011;62523;53.336;83.690;2022-09-25T20:28:31;31.45;;;14.13;;
74168;SDS011;62523;53.336;83.690;2022-09-25T20:33:33;37.00;;;14.88;;
74168;SDS011;62523;53.336;83.690;2022-09-25T20:38:37;32.75;;;15.30;;
74168;SDS011;62523;53.336;83.690;2022-09-25T20:43:39;44.45;;;18.23;;
74168;SDS011;62523;53.336;83.690;2022-09-25T20:48:42;23.13;;;15.45;;
74168;SDS011;62523;53.336;83.690;2022-09-25T20:53:50;29.83;;;14.80;;
74168;SDS011;62523;53.336;83.690;2022-09-25T20:58:53;32.67;;;14.32;;
74168;SDS011;62523;53.336;83.690;2022-09-25T21:03:56;27.25;;;13.30;;
74168;SDS011;62523;53.336;83.690;2022-09-25T21:09:02;35.90;;;16.38;;
74168;SDS011;62523;53.336;83.690;2022-09-25T21:14:05;22.13;;;12.93;;
74168;SDS011;62523;53.336;83.690;2022-09-25T21:19:09;22.80;;;14.18;;
74168;SDS011;62523;53.336;83.690;2022-09-25T21:24:16;31.33;;;14.20;;
74168;SDS011;62523;53.336;83.690;2022-09-25T21:29:18;33.45;;;16.75;;
74168;SDS011;62523;53.336;83.690;2022-09-25T21:34:20;23.45;;;12.82;;
74168;SDS011;62523;53.336;83.690;2022-09-25T21:39:21;23.40;;;10.38;;
74168;SDS011;62523;53.336;83.690;2022-09-25T21:44:22;24.42;;;12.07;;
74168;SDS011;62523;53.336;83.690;2022-09-25T21:49:25;34.92;;;14.55;;
74168;SDS011;62523;53.336;83.690;2022-09-25T21:54:26;16.45;;;10.95;;
74168;SDS011;62523;53.336;83.690;2022-09-25T21:59:27;23.00;;;12.23;;
74168;SDS011;62523;53.336;83.690;2022-09-25T22:04:29;34.30;;;12.30;;
74168;SDS011;62523;53.336;83.690;2022-09-25T22:09:30;47.30;;;13.30;;
74168;SDS011;62523;53.336;83.690;2022-09-25T22:14:31;23.10;;;13.68;;
74168;SDS011;62523;53.336;83.690;2022-09-25T22:24:34;18.98;;;11.98;;
74168;SDS011;62523;53.336;83.690;2022-09-25T22:29:35;18.00;;;9.93;;
74168;SDS011;62523;53.336;83.690;2022-09-25T22:39:37;19.38;;;11.55;;
74168;SDS011;62523;53.336;83.690;2022-09-25T22:49:39;20.20;;;10.67;;
74168;SDS011;62523;53.336;83.690;2022-09-25T22:59:42;24.83;;;12.50;;
74168;SDS011;62523;53.336;83.690;2022-09-25T23:09:45;29.40;;;13.27;;
74168;SDS011;62523;53.336;83.690;2022-09-25T23:14:46;22.33;;;11.82;;
74168;SDS011;62523;53.336;83.690;2022-09-25T23:24:49;20.83;;;10.35;;
74168;SDS011;62523;53.336;83.690;2022-09-25T23:29:50;14.07;;;9.15;;
74168;SDS011;62523;53.336;83.690;2022-09-25T23:39:52;14.53;;;10.30;;
74168;SDS011;62523;53.336;83.690;2022-09-25T23:49:54;9.57;;;7.27;;
74168;SDS011;62523;53.336;83.690;2022-09-25T23:54:56;14.18;;;8.15;;
74168;SDS011;62523;53.336;83.690;2022-09-25T23:59:58;10.93;;;6.00;;
